createdAt,value
2019-04-22T00:05:04.578Z,5.40
2019-04-22T00:15:36.606Z,5.40
2019-04-22T00:25:47.770Z,5.20
2019-04-22T00:35:05.530Z,5.10
2019-04-22T00:40:06.791Z,5.00
2019-04-22T00:45:11.437Z,4.90
2019-04-22T00:59:37.236Z,4.70
2019-04-22T01:04:34.418Z,4.70
2019-04-22T01:08:57.634Z,4.60
2019-04-22T01:13:38.166Z,4.60
2019-04-22T01:23:40.478Z,4.40
2019-04-22T01:28:06.204Z,4.30
2019-04-22T01:31:51.397Z,4.20
2019-04-22T01:37:59.648Z,4.30
2019-04-22T01:43:31.357Z,4.20
2019-04-22T01:57:22.108Z,4.10
2019-04-22T02:02:48.552Z,4.00
2019-04-22T02:07:41.201Z,3.90
2019-04-22T02:32:38.541Z,3.50
2019-04-22T02:46:02.026Z,3.30
2019-04-22T02:56:22.530Z,3.20
2019-04-22T03:06:05.056Z,3.10
2019-04-22T03:10:54.502Z,3.00
2019-04-22T03:20:41.042Z,2.90
2019-04-22T03:30:32.931Z,3.00
2019-04-22T03:44:59.891Z,2.80
2019-04-22T03:59:26.434Z,2.60
2019-04-22T04:04:32.450Z,2.50
2019-04-22T04:09:16.594Z,2.40
2019-04-22T04:18:46.359Z,2.40
2019-04-22T04:24:00.527Z,2.50
2019-04-22T04:38:28.527Z,2.50
2019-04-22T04:43:15.400Z,2.40
2019-04-22T04:57:54.131Z,2.80
2019-04-22T05:07:52.981Z,3.10
2019-04-22T05:17:01.972Z,4.30
2019-04-22T05:21:46.765Z,8.00
2019-04-22T05:26:32.361Z,11.90
2019-04-22T05:31:21.079Z,14.80
2019-04-22T05:36:27.906Z,16.00
2019-04-22T05:41:08.351Z,18.10
2019-04-22T05:50:22.704Z,21.00
2019-04-22T05:55:20.980Z,19.80
2019-04-22T06:01:37.781Z,17.30
2019-04-22T06:05:30.139Z,15.10
2019-04-22T06:10:09.585Z,13.50
2019-04-22T06:20:14.892Z,12.00
2019-04-22T06:29:53.134Z,11.60
2019-04-22T06:34:28.557Z,11.60
2019-04-22T06:39:36.770Z,11.60
2019-04-22T06:44:17.791Z,11.70
2019-04-22T06:54:27.435Z,11.90
2019-04-22T06:58:14.897Z,12.30
2019-04-22T07:08:30.225Z,13.00
2019-04-22T07:18:17.706Z,13.80
2019-04-22T07:28:19.795Z,14.30
2019-04-22T07:38:04.249Z,15.00
2019-04-22T07:42:24.299Z,15.20
2019-04-22T07:47:37.282Z,15.50
2019-04-22T07:52:09.375Z,15.80
2019-04-22T07:57:27.288Z,16.00
2019-04-22T08:02:37.238Z,16.20
2019-04-22T08:11:49.572Z,16.70
2019-04-22T08:16:36.414Z,17.10
2019-04-22T08:26:19.136Z,17.90
2019-04-22T08:31:13.365Z,18.10
2019-04-22T08:36:40.331Z,18.00
2019-04-22T08:51:20.678Z,19.10
2019-04-22T08:55:38.047Z,19.40
2019-04-22T09:00:29.045Z,19.40
2019-04-22T09:05:36.646Z,19.70
2019-04-22T09:10:16.949Z,19.70
2019-04-22T09:14:54.907Z,19.70
2019-04-22T09:19:40.214Z,19.60
2019-04-22T09:24:51.563Z,20.10
2019-04-22T09:29:48.919Z,20.40
2019-04-22T09:34:06.261Z,20.60
2019-04-22T09:44:21.537Z,20.80
2019-04-22T09:59:02.050Z,21.10
2019-04-22T10:04:06.117Z,21.10
2019-04-22T10:17:31.244Z,21.60
2019-04-22T10:22:56.966Z,21.60
2019-04-22T10:28:14.558Z,21.60
2019-04-22T10:32:57.741Z,21.70
2019-04-22T10:36:15.402Z,21.90
2019-04-22T10:41:05.456Z,22.00
2019-04-22T10:45:58.123Z,22.20
2019-04-22T10:50:52.918Z,22.30
2019-04-22T10:55:51.272Z,22.10
2019-04-22T11:00:35.742Z,21.70
2019-04-22T11:05:28.118Z,21.80
2019-04-22T11:11:21.207Z,22.00
2019-04-22T11:15:09.991Z,22.30
2019-04-22T11:20:01.431Z,22.50
2019-04-22T11:24:59.294Z,22.10
2019-04-22T11:29:47.980Z,21.80
2019-04-22T11:34:40.719Z,21.60
2019-04-22T11:39:38.843Z,21.60
2019-04-22T11:44:25.644Z,21.90
2019-04-22T11:49:16.912Z,22.00
2019-04-22T11:54:07.860Z,22.30
2019-04-22T11:58:57.907Z,21.30
2019-04-22T12:03:52.028Z,22.80
2019-04-22T12:08:43.894Z,23.10
2019-04-22T12:13:32.087Z,23.50
2019-04-22T12:18:27.097Z,23.80
2019-04-22T12:23:17.153Z,24.20
2019-04-22T12:28:06.305Z,24.50
2019-04-22T12:33:00.368Z,24.50
2019-04-22T12:38:08.739Z,24.90
2019-04-22T12:42:42.191Z,24.90
2019-04-22T12:47:34.224Z,24.90
2019-04-22T12:52:56.921Z,25.00
2019-04-22T12:57:18.421Z,25.00
2019-04-22T13:02:09.388Z,24.80
2019-04-22T13:06:59.872Z,24.90
2019-04-22T13:11:53.111Z,24.90
2019-04-22T13:16:43.081Z,24.90
2019-04-22T13:21:33.410Z,24.60
2019-04-22T13:26:27.284Z,24.50
2019-04-22T13:31:19.289Z,24.40
2019-04-22T13:36:08.362Z,24.40
2019-04-22T13:41:39.860Z,24.30
2019-04-22T13:45:50.085Z,24.20
2019-04-22T13:54:11.937Z,24.10
2019-04-22T14:00:25.035Z,24.10
2019-04-22T14:05:17.133Z,24.10
2019-04-22T14:10:08.539Z,24.40
2019-04-22T14:15:00.468Z,24.30
2019-04-22T14:19:50.431Z,24.30
2019-04-22T14:24:42.861Z,24.20
2019-04-22T14:29:33.761Z,24.20
2019-04-22T14:34:26.068Z,24.20
2019-04-22T14:39:13.850Z,24.10
2019-04-22T14:54:51.388Z,23.80
2019-04-22T14:58:40.978Z,24.00
2019-04-22T15:03:33.732Z,24.30
2019-04-22T15:08:22.153Z,24.50
2019-04-22T15:13:15.812Z,24.40
2019-04-22T15:18:07.690Z,24.40
2019-04-22T15:22:58.622Z,24.40
2019-04-22T15:27:48.489Z,24.60
2019-04-22T15:32:41.150Z,24.50
2019-04-22T15:37:35.304Z,24.40
2019-04-22T15:42:41.883Z,24.30
2019-04-22T15:47:15.444Z,24.00
2019-04-22T15:52:08.570Z,23.90
2019-04-22T15:56:58.732Z,23.70
2019-04-22T16:01:50.808Z,23.40
2019-04-22T16:06:41.355Z,23.50
2019-04-22T16:11:31.567Z,23.50
2019-04-22T16:16:25.091Z,23.50
2019-04-22T16:21:56.386Z,23.50
2019-04-22T16:26:11.383Z,23.50
2019-04-22T16:31:01.324Z,23.40
2019-04-22T16:35:51.079Z,23.40
2019-04-22T16:40:43.191Z,23.40
2019-04-22T16:45:33.838Z,23.30
2019-04-22T16:50:25.422Z,23.20
2019-04-22T16:55:16.856Z,23.10
2019-04-22T17:00:09.038Z,23.10
2019-04-22T17:04:59.821Z,23.10
2019-04-22T17:09:52.345Z,23.00
2019-04-22T17:15:08.008Z,22.80
2019-04-22T17:19:35.653Z,22.70
2019-04-22T17:24:26.006Z,22.50
2019-04-22T17:29:16.353Z,22.50
2019-04-22T17:34:07.584Z,22.40
2019-04-22T17:39:50.732Z,22.30
2019-04-22T17:45:44.492Z,22.10
2019-04-22T17:50:08.051Z,22.10
2019-04-22T17:55:04.321Z,22.00
2019-04-22T17:59:54.521Z,21.70
2019-04-22T18:03:53.687Z,21.60
2019-04-22T18:09:38.846Z,21.40
2019-04-22T18:14:59.001Z,21.30
2019-04-22T18:19:25.842Z,21.10
2019-04-22T18:23:20.643Z,21.10
2019-04-22T18:33:47.468Z,20.70
2019-04-22T18:38:51.291Z,20.60
2019-04-22T18:43:26.814Z,20.40
2019-04-22T18:48:03.873Z,20.30
2019-04-22T18:53:26.896Z,20.10
2019-04-22T18:57:54.937Z,20.10
2019-04-22T19:02:19.916Z,19.90
2019-04-22T19:08:30.276Z,19.80
2019-04-22T19:23:03.601Z,19.50
2019-04-22T19:27:52.945Z,19.40
2019-04-22T19:32:50.649Z,19.30
2019-04-22T19:37:32.515Z,19.20
2019-04-22T19:42:42.872Z,19.10
2019-04-22T19:47:19.404Z,19.00
2019-04-22T19:51:52.293Z,18.90
2019-04-22T19:56:32.140Z,18.70
2019-04-22T20:11:22.524Z,18.30
2019-04-22T20:15:53.950Z,18.10
2019-04-22T20:21:03.531Z,18.10
2019-04-22T20:25:27.794Z,18.00
2019-04-22T20:30:54.888Z,17.90
2019-04-22T20:40:54.847Z,17.60
2019-04-22T20:50:18.399Z,17.30
2019-04-22T20:54:58.268Z,17.20
2019-04-22T21:00:01.935Z,17.00
2019-04-22T21:04:06.737Z,16.80
2019-04-22T21:10:00.720Z,16.40
2019-04-22T21:14:19.491Z,16.10
2019-04-22T21:19:11.642Z,15.80
2019-04-22T21:24:02.642Z,15.70
2019-04-22T21:29:12.297Z,15.50
2019-04-22T21:34:00.701Z,15.40
2019-04-22T21:39:06.450Z,15.50
2019-04-22T21:43:57.667Z,15.50
2019-04-22T21:48:46.004Z,15.60
2019-04-22T21:53:37.826Z,15.60
2019-04-22T21:58:42.632Z,15.60
2019-04-22T22:03:47.519Z,15.60
2019-04-22T22:12:40.625Z,15.60
2019-04-22T22:17:41.974Z,15.70
2019-04-22T22:23:36.886Z,15.60
2019-04-22T22:27:47.335Z,15.60
2019-04-22T22:32:53.386Z,15.60
2019-04-22T22:37:15.795Z,15.50
2019-04-22T22:40:58.063Z,15.40
2019-04-22T22:46:33.935Z,15.40
2019-04-22T22:52:02.023Z,15.30
2019-04-22T22:56:58.899Z,15.30
2019-04-22T23:01:53.997Z,15.30
2019-04-22T23:12:03.102Z,15.30
2019-04-22T23:16:08.720Z,15.30
2019-04-22T23:20:01.902Z,15.30
2019-04-22T23:25:54.568Z,15.30
2019-04-22T23:30:15.329Z,15.40
2019-04-22T23:35:40.935Z,15.40
2019-04-22T23:40:59.972Z,15.40
2019-04-22T23:45:26.568Z,15.50
